createdAt,value
2023-03-17T00:00:52.316Z,-0.68
2023-03-17T00:04:01.558Z,-0.75
2023-03-17T00:07:11.871Z,-0.53
2023-03-17T00:10:23.143Z,-0.53
2023-03-17T00:13:32.263Z,-0.45
2023-03-17T00:16:43.235Z,-0.88
2023-03-17T00:19:52.481Z,-0.78
2023-03-17T00:23:04.424Z,-0.70
2023-03-17T00:26:15.404Z,-0.72
2023-03-17T00:29:25.606Z,-1.33
2023-03-17T00:32:34.869Z,-1.13
2023-03-17T00:35:45.591Z,-0.84
2023-03-17T00:38:54.881Z,-1.05
2023-03-17T00:42:05.684Z,-0.91
2023-03-17T00:45:15.872Z,-1.02
2023-03-17T00:48:25.107Z,-1.14
2023-03-17T00:51:34.247Z,-1.40
2023-03-17T00:54:43.417Z,-1.28
2023-03-17T00:57:54.162Z,-1.29
2023-03-17T01:01:03.433Z,-1.41
2023-03-17T01:04:12.742Z,-1.24
2023-03-17T01:07:22.563Z,-1.22
2023-03-17T01:10:32.752Z,-1.43
2023-03-17T01:13:43.326Z,-1.64
2023-03-17T01:16:53.171Z,-1.89
2023-03-17T01:20:03.029Z,-2.07
2023-03-17T01:23:12.780Z,-2.13
2023-03-17T01:26:22.317Z,-1.81
2023-03-17T01:29:36.152Z,-1.87
2023-03-17T01:32:45.517Z,-2.02
2023-03-17T01:35:54.776Z,-1.92
2023-03-17T01:39:05.512Z,-1.88
2023-03-17T01:42:14.725Z,-1.74
2023-03-17T01:46:01.555Z,-1.61
2023-03-17T01:49:17.639Z,-1.18
2023-03-17T01:52:26.846Z,-1.84
2023-03-17T01:55:36.718Z,-1.88
2023-03-17T01:58:48.572Z,-2.03
2023-03-17T02:02:01.494Z,-1.79
2023-03-17T02:05:14.733Z,-1.91
2023-03-17T02:08:24.040Z,-1.92
2023-03-17T02:11:34.222Z,-1.88
2023-03-17T02:14:44.288Z,-1.96
2023-03-17T02:17:55.585Z,-1.82
2023-03-17T02:21:34.320Z,-2.03
2023-03-17T02:24:45.093Z,-2.19
2023-03-17T02:27:59.546Z,-2.13
2023-03-17T02:31:09.554Z,-1.93
2023-03-17T02:34:18.905Z,-2.29
2023-03-17T02:37:29.727Z,-2.38
2023-03-17T02:40:38.941Z,-2.37
2023-03-17T02:43:48.206Z,-2.51
2023-03-17T02:46:57.663Z,-2.24
2023-03-17T02:50:07.516Z,-2.23
2023-03-17T02:53:18.354Z,-2.16
2023-03-17T02:56:28.177Z,-2.14
2023-03-17T02:59:37.604Z,-1.79
2023-03-17T03:02:47.154Z,-2.11
2023-03-17T03:05:57.691Z,-2.21
2023-03-17T03:09:08.610Z,-2.03
2023-03-17T03:12:17.898Z,-2.02
2023-03-17T03:15:27.098Z,-1.93
2023-03-17T03:18:37.350Z,-1.80
2023-03-17T03:21:46.311Z,-2.07
2023-03-17T03:24:57.242Z,-1.77
2023-03-17T03:28:06.707Z,-1.86
2023-03-17T03:31:16.280Z,-2.03
2023-03-17T03:34:25.794Z,-2.13
2023-03-17T03:37:35.116Z,-2.05
2023-03-17T03:40:46.411Z,-2.06
2023-03-17T03:43:55.677Z,-2.25
2023-03-17T03:47:04.919Z,-1.99
2023-03-17T03:50:14.524Z,-1.94
2023-03-17T03:53:24.357Z,-1.91
2023-03-17T03:56:35.099Z,-1.83
2023-03-17T03:59:44.331Z,-2.08
2023-03-17T04:02:53.538Z,-1.97
2023-03-17T04:06:03.566Z,-2.02
2023-03-17T04:09:12.830Z,-2.17
2023-03-17T04:12:23.449Z,-1.97
2023-03-17T04:15:33.175Z,-1.90
2023-03-17T04:18:42.665Z,-2.20
2023-03-17T04:21:53.715Z,-2.31
2023-03-17T04:25:04.019Z,-2.11
2023-03-17T04:28:14.593Z,-2.17
2023-03-17T04:31:23.812Z,-1.97
2023-03-17T04:34:33.355Z,-1.96
2023-03-17T04:37:43.105Z,-1.98
2023-03-17T04:40:52.748Z,-2.31
2023-03-17T04:44:03.459Z,-2.14
2023-03-17T04:47:12.803Z,-2.14
2023-03-17T04:50:22.109Z,-1.93
2023-03-17T04:53:31.718Z,-1.94
2023-03-17T04:56:41.129Z,-1.97
2023-03-17T04:59:52.224Z,-1.87
2023-03-17T05:03:01.511Z,-1.88
2023-03-17T05:06:11.127Z,-1.78
2023-03-17T05:09:20.298Z,-1.84
2023-03-17T05:12:29.775Z,-1.76
2023-03-17T05:15:41.328Z,-1.39
2023-03-17T05:18:50.768Z,-1.59
2023-03-17T05:21:59.987Z,-1.45
2023-03-17T05:25:10.137Z,-1.23
2023-03-17T05:28:19.461Z,-1.29
2023-03-17T05:31:31.126Z,-1.20
2023-03-17T05:34:40.861Z,-1.15
2023-03-17T05:37:50.010Z,-0.76
2023-03-17T05:40:59.291Z,-0.88
2023-03-17T05:44:08.656Z,-0.71
2023-03-17T05:47:19.363Z,-0.21
2023-03-17T05:50:29.325Z,-0.15
2023-03-17T05:53:38.748Z,-0.14
2023-03-17T05:56:47.916Z,-0.54
2023-03-17T05:59:57.476Z,0.00
2023-03-17T06:03:08.204Z,-0.31
2023-03-17T06:06:17.560Z,-0.08
2023-03-17T06:09:26.745Z,0.13
2023-03-17T06:12:36.169Z,0.58
2023-03-17T06:15:45.544Z,-0.33
2023-03-17T06:18:56.116Z,-0.55
2023-03-17T06:22:05.585Z,-0.34
2023-03-17T06:25:15.758Z,-0.09
2023-03-17T06:28:25.333Z,0.05
2023-03-17T06:30:56.349Z,-0.16
2023-03-17T06:33:25.644Z,-0.10
2023-03-17T06:35:56.383Z,0.35
2023-03-17T06:38:25.617Z,0.35
2023-03-17T06:40:56.514Z,0.60
2023-03-17T06:43:25.695Z,0.21
2023-03-17T06:45:54.977Z,0.52
2023-03-17T06:48:24.527Z,0.56
2023-03-17T06:50:53.555Z,0.48
2023-03-17T06:53:24.106Z,-0.09
2023-03-17T06:55:52.640Z,0.54
2023-03-17T06:58:21.959Z,1.78
2023-03-17T07:00:53.633Z,2.45
2023-03-17T07:03:24.228Z,2.48
2023-03-17T07:05:53.584Z,3.50
2023-03-17T07:08:23.876Z,3.77
2023-03-17T07:10:52.826Z,5.05
2023-03-17T07:13:22.394Z,4.98
2023-03-17T07:15:53.334Z,4.55
2023-03-17T07:18:24.033Z,5.18
2023-03-17T07:20:53.026Z,4.50
2023-03-17T07:23:24.983Z,4.83
2023-03-17T07:25:53.871Z,5.87
2023-03-17T07:28:22.845Z,4.15
2023-03-17T07:30:52.600Z,5.22
2023-03-17T07:33:22.361Z,4.24
2023-03-17T07:35:52.163Z,4.82
2023-03-17T07:38:21.180Z,6.61
2023-03-17T07:40:53.137Z,5.30
2023-03-17T07:43:22.114Z,4.71
2023-03-17T07:45:51.512Z,5.33
2023-03-17T07:48:21.286Z,5.53
2023-03-17T07:50:50.930Z,5.68
2023-03-17T07:53:19.922Z,4.20
2023-03-17T07:55:48.397Z,5.65
2023-03-17T07:58:18.789Z,8.59
2023-03-17T08:00:48.972Z,6.64
2023-03-17T08:03:17.913Z,6.09
2023-03-17T08:05:47.245Z,6.91
2023-03-17T08:08:16.282Z,8.07
2023-03-17T08:10:45.000Z,9.52
2023-03-17T08:13:14.316Z,6.48
2023-03-17T08:15:45.722Z,5.57
2023-03-17T08:18:14.704Z,5.14
2023-03-17T08:20:43.713Z,5.07
2023-03-17T08:23:13.081Z,5.70
2023-03-17T08:25:42.784Z,6.15
2023-03-17T08:28:11.836Z,7.27
2023-03-17T08:30:41.281Z,7.87
2023-03-17T08:33:12.731Z,7.24
2023-03-17T08:35:43.037Z,6.39
2023-03-17T08:38:12.410Z,6.98
2023-03-17T08:40:41.600Z,7.21
2023-03-17T08:43:10.865Z,5.62
2023-03-17T08:45:40.954Z,5.55
2023-03-17T08:48:11.640Z,6.36
2023-03-17T08:50:40.755Z,6.38
2023-03-17T08:53:10.188Z,5.45
2023-03-17T08:55:39.220Z,5.87
2023-03-17T08:58:09.651Z,6.77
2023-03-17T09:00:38.632Z,6.91
2023-03-17T09:03:08.658Z,7.69
2023-03-17T09:05:38.982Z,10.23
2023-03-17T09:08:07.716Z,9.62
2023-03-17T09:10:36.619Z,9.53
2023-03-17T09:13:05.629Z,9.19
2023-03-17T09:15:35.136Z,10.71
2023-03-17T09:18:05.725Z,12.29
2023-03-17T09:20:35.258Z,10.54
2023-03-17T09:23:09.264Z,10.06
2023-03-17T09:25:38.954Z,11.09
2023-03-17T09:28:08.058Z,10.81
2023-03-17T09:30:37.563Z,10.99
2023-03-17T09:33:06.808Z,11.27
2023-03-17T09:35:35.708Z,13.49
2023-03-17T09:38:04.710Z,11.79
2023-03-17T09:40:38.112Z,16.93
2023-03-17T09:43:13.680Z,13.10
2023-03-17T09:45:43.875Z,16.82
2023-03-17T09:48:27.439Z,15.50
2023-03-17T09:50:59.062Z,16.79
2023-03-17T09:53:34.185Z,13.52
2023-03-17T09:56:09.549Z,12.53
2023-03-17T09:58:39.371Z,17.03
2023-03-17T10:01:10.869Z,15.77
2023-03-17T10:03:39.886Z,16.03
2023-03-17T10:06:29.662Z,16.66
2023-03-17T10:09:02.567Z,14.70
2023-03-17T10:11:41.065Z,14.14
2023-03-17T10:14:20.147Z,9.92
2023-03-17T10:16:54.862Z,13.44
2023-03-17T10:19:28.774Z,16.53
2023-03-17T10:22:00.879Z,10.66
2023-03-17T10:24:32.621Z,13.75
2023-03-17T10:27:06.540Z,17.84
2023-03-17T10:29:36.203Z,14.75
2023-03-17T10:32:06.136Z,12.19
2023-03-17T10:34:37.999Z,14.71
2023-03-17T10:37:09.739Z,19.98
2023-03-17T10:39:44.902Z,15.68
2023-03-17T10:42:23.183Z,13.24
2023-03-17T10:44:55.346Z,10.16
2023-03-17T10:47:26.922Z,14.50
2023-03-17T10:49:56.498Z,17.35
2023-03-17T10:52:28.961Z,15.44
2023-03-17T10:55:03.814Z,16.06
2023-03-17T10:57:34.667Z,14.65
2023-03-17T11:00:05.526Z,11.36
2023-03-17T11:02:38.438Z,13.91
2023-03-17T11:05:11.016Z,17.65
2023-03-17T11:07:41.928Z,14.78
2023-03-17T11:10:19.298Z,14.16
2023-03-17T11:12:51.611Z,15.02
2023-03-17T11:15:20.671Z,12.88
2023-03-17T11:17:54.684Z,12.10
2023-03-17T11:20:37.292Z,14.05
2023-03-17T11:23:08.811Z,12.93
2023-03-17T11:25:42.328Z,13.48
2023-03-17T11:28:19.985Z,13.26
2023-03-17T11:31:00.482Z,13.79
2023-03-17T11:33:37.809Z,14.51
2023-03-17T11:36:15.833Z,13.18
2023-03-17T11:38:54.496Z,12.66
2023-03-17T11:41:41.941Z,13.50
2023-03-17T11:44:23.566Z,11.05
2023-03-17T11:46:56.001Z,9.98
2023-03-17T11:49:30.251Z,10.02
2023-03-17T11:52:03.811Z,9.24
2023-03-17T11:54:41.539Z,10.01
2023-03-17T11:57:15.473Z,10.61
2023-03-17T11:59:49.819Z,9.33
2023-03-17T12:02:24.036Z,9.34
2023-03-17T12:04:55.731Z,11.94
2023-03-17T12:07:26.910Z,10.54
2023-03-17T12:10:03.284Z,9.20
2023-03-17T12:12:38.309Z,10.14
2023-03-17T12:15:15.983Z,10.12
2023-03-17T12:17:51.838Z,11.63
2023-03-17T12:20:25.706Z,8.71
2023-03-17T12:22:57.240Z,8.85
2023-03-17T12:25:29.620Z,7.79
2023-03-17T12:28:02.374Z,7.72
2023-03-17T12:30:47.671Z,9.76
2023-03-17T12:33:23.863Z,10.21
2023-03-17T12:35:53.870Z,10.66
2023-03-17T12:38:29.420Z,10.98
2023-03-17T12:41:13.340Z,11.76
2023-03-17T12:43:49.974Z,9.90
2023-03-17T12:46:30.765Z,9.49
2023-03-17T12:49:14.681Z,9.00
2023-03-17T12:51:59.144Z,9.25
2023-03-17T12:54:29.953Z,9.27
2023-03-17T12:57:03.993Z,8.66
2023-03-17T12:59:34.197Z,9.15
2023-03-17T13:02:17.742Z,8.11
2023-03-17T13:04:53.737Z,8.52
2023-03-17T13:07:25.888Z,8.14
2023-03-17T13:10:14.655Z,7.85
2023-03-17T13:13:08.978Z,8.57
2023-03-17T13:16:01.035Z,7.89
2023-03-17T13:18:50.366Z,7.38
2023-03-17T13:21:21.896Z,7.49
2023-03-17T13:23:57.914Z,7.33
2023-03-17T13:26:54.949Z,7.77
2023-03-17T13:29:39.361Z,8.01
2023-03-17T13:32:44.481Z,7.84
2023-03-17T13:35:41.569Z,8.36
2023-03-17T13:38:34.778Z,7.32
2023-03-17T13:41:38.279Z,6.80
2023-03-17T13:44:31.070Z,8.56
2023-03-17T13:47:17.432Z,7.62
2023-03-17T13:49:50.718Z,6.82
2023-03-17T13:52:27.645Z,7.50
2023-03-17T13:55:07.873Z,8.65
2023-03-17T13:57:41.878Z,7.66
2023-03-17T14:00:22.529Z,8.47
2023-03-17T14:02:57.990Z,8.83
2023-03-17T14:05:29.898Z,7.98
2023-03-17T14:08:02.286Z,8.05
2023-03-17T14:10:33.281Z,7.68
2023-03-17T14:13:08.120Z,8.67
2023-03-17T14:15:46.367Z,8.03
2023-03-17T14:18:18.071Z,8.33
2023-03-17T14:20:54.236Z,8.13
2023-03-17T14:23:25.015Z,8.47
2023-03-17T14:25:53.209Z,8.02
2023-03-17T14:28:26.855Z,7.30
2023-03-17T14:30:58.263Z,7.59
2023-03-17T14:33:28.137Z,7.51
2023-03-17T14:35:59.974Z,7.79
2023-03-17T14:38:32.167Z,8.23
2023-03-17T14:41:03.031Z,7.60
2023-03-17T14:43:31.796Z,7.57
2023-03-17T14:46:02.944Z,7.45
2023-03-17T14:48:34.080Z,7.31
2023-03-17T14:51:06.809Z,6.90
2023-03-17T14:53:41.050Z,7.09
2023-03-17T14:56:10.639Z,7.42
2023-03-17T14:58:42.722Z,7.48
2023-03-17T15:01:17.718Z,8.01
2023-03-17T15:03:56.497Z,8.73
2023-03-17T15:06:27.631Z,7.95
2023-03-17T15:09:00.485Z,7.16
2023-03-17T15:11:37.739Z,7.23
2023-03-17T15:14:20.010Z,7.19
2023-03-17T15:16:50.969Z,7.20
2023-03-17T15:19:21.382Z,7.72
2023-03-17T15:21:50.894Z,6.89
2023-03-17T15:24:35.865Z,7.17
2023-03-17T15:27:06.563Z,7.74
2023-03-17T15:29:35.590Z,7.52
2023-03-17T15:32:12.240Z,7.93
2023-03-17T15:34:40.931Z,7.09
2023-03-17T15:37:17.646Z,7.14
2023-03-17T15:39:48.604Z,7.37
2023-03-17T15:42:21.633Z,6.57
2023-03-17T15:44:50.714Z,6.57
2023-03-17T15:47:21.060Z,6.98
2023-03-17T15:49:50.681Z,7.16
2023-03-17T15:52:25.006Z,7.22
2023-03-17T15:54:56.592Z,7.34
2023-03-17T15:57:27.242Z,7.02
2023-03-17T15:59:56.723Z,6.51
2023-03-17T16:02:29.148Z,6.77
2023-03-17T16:04:57.776Z,6.95
2023-03-17T16:07:27.243Z,6.20
2023-03-17T16:09:58.114Z,6.33
2023-03-17T16:12:27.083Z,6.44
2023-03-17T16:14:56.035Z,6.60
2023-03-17T16:17:29.039Z,6.82
2023-03-17T16:19:58.133Z,6.85
2023-03-17T16:22:39.735Z,7.03
2023-03-17T16:25:19.646Z,6.88
2023-03-17T16:27:49.374Z,6.75
2023-03-17T16:30:19.492Z,6.83
2023-03-17T16:32:48.610Z,6.77
2023-03-17T16:35:19.466Z,6.51
2023-03-17T16:37:48.726Z,6.65
2023-03-17T16:40:24.250Z,6.76
2023-03-17T16:42:53.951Z,6.64
2023-03-17T16:45:27.755Z,6.73
2023-03-17T16:47:57.622Z,6.51
2023-03-17T16:50:28.735Z,6.57
2023-03-17T16:52:57.665Z,6.32
2023-03-17T16:55:29.097Z,6.31
2023-03-17T16:58:00.825Z,5.97
2023-03-17T17:00:31.602Z,6.14
2023-03-17T17:03:01.070Z,6.02
2023-03-17T17:05:31.317Z,6.21
2023-03-17T17:08:01.707Z,6.13
2023-03-17T17:10:34.303Z,6.16
2023-03-17T17:13:07.055Z,5.90
2023-03-17T17:15:37.546Z,5.96
2023-03-17T17:18:09.491Z,5.73
2023-03-17T17:20:40.649Z,5.99
2023-03-17T17:23:13.203Z,6.02
2023-03-17T17:25:43.710Z,5.90
2023-03-17T17:28:14.042Z,5.83
2023-03-17T17:30:45.315Z,5.86
2023-03-17T17:33:14.437Z,5.81
2023-03-17T17:35:44.558Z,5.76
2023-03-17T17:38:19.682Z,5.66
2023-03-17T17:40:50.470Z,5.71
2023-03-17T17:43:19.525Z,5.43
2023-03-17T17:45:49.694Z,5.45
2023-03-17T17:48:19.873Z,5.47
2023-03-17T17:50:48.816Z,5.35
2023-03-17T17:53:18.169Z,5.52
2023-03-17T17:55:48.539Z,5.59
2023-03-17T17:58:21.489Z,4.98
2023-03-17T18:00:50.741Z,5.27
2023-03-17T18:03:24.545Z,5.28
2023-03-17T18:05:53.603Z,5.37
2023-03-17T18:08:22.895Z,5.28
2023-03-17T18:10:52.201Z,4.84
2023-03-17T18:13:24.681Z,5.32
2023-03-17T18:15:53.867Z,4.84
2023-03-17T18:18:22.734Z,4.75
2023-03-17T18:20:52.640Z,5.00
2023-03-17T18:23:21.708Z,5.23
2023-03-17T18:25:50.620Z,5.07
2023-03-17T18:28:19.592Z,5.08
2023-03-17T18:30:50.247Z,4.61
2023-03-17T18:33:20.698Z,5.01
2023-03-17T18:35:51.162Z,4.63
2023-03-17T18:38:19.811Z,4.99
2023-03-17T18:40:48.483Z,4.71
2023-03-17T18:43:17.502Z,4.97
2023-03-17T18:45:46.595Z,4.78
2023-03-17T18:48:16.910Z,4.73
2023-03-17T18:50:45.560Z,4.75
2023-03-17T18:53:14.598Z,4.69
2023-03-17T18:55:43.234Z,4.68
2023-03-17T18:58:12.932Z,4.37
2023-03-17T19:00:42.083Z,4.54
2023-03-17T19:03:11.135Z,4.58
2023-03-17T19:05:41.562Z,4.58
2023-03-17T19:08:10.494Z,4.63
2023-03-17T19:10:39.015Z,4.70
2023-03-17T19:13:10.196Z,4.47
2023-03-17T19:15:39.413Z,4.16
2023-03-17T19:18:08.625Z,4.62
2023-03-17T19:20:37.982Z,4.39
2023-03-17T19:23:08.452Z,4.54
2023-03-17T19:25:37.488Z,4.07
2023-03-17T19:28:06.481Z,4.13
2023-03-17T19:30:35.850Z,4.23
2023-03-17T19:33:06.209Z,3.84
2023-03-17T19:35:35.432Z,4.39
2023-03-17T19:38:04.523Z,4.46
2023-03-17T19:40:34.602Z,4.28
2023-03-17T19:43:03.836Z,4.19
2023-03-17T19:45:32.745Z,4.00
2023-03-17T19:48:01.776Z,4.21
2023-03-17T19:50:33.060Z,4.15
2023-03-17T19:53:02.424Z,4.37
2023-03-17T19:55:31.232Z,4.02
2023-03-17T19:58:01.693Z,3.83
2023-03-17T20:00:30.521Z,4.12
2023-03-17T20:02:59.572Z,3.85
2023-03-17T20:05:30.140Z,4.00
2023-03-17T20:07:59.289Z,4.08
2023-03-17T20:10:28.140Z,3.89
2023-03-17T20:12:57.319Z,3.75
2023-03-17T20:15:28.495Z,4.06
2023-03-17T20:17:57.386Z,3.45
2023-03-17T20:20:26.570Z,3.47
2023-03-17T20:22:55.081Z,3.33
2023-03-17T20:25:24.177Z,3.89
2023-03-17T20:27:53.489Z,3.70
2023-03-17T20:30:22.693Z,3.75
2023-03-17T20:32:53.268Z,3.19
2023-03-17T20:35:22.232Z,3.52
2023-03-17T20:37:51.492Z,3.77
2023-03-17T20:40:20.780Z,3.50
2023-03-17T20:42:49.791Z,3.47
2023-03-17T20:45:19.384Z,3.39
2023-03-17T20:47:48.696Z,3.41
2023-03-17T20:50:19.313Z,3.17
2023-03-17T20:52:48.003Z,3.48
2023-03-17T20:55:17.719Z,3.25
2023-03-17T20:57:47.606Z,3.33
2023-03-17T21:00:20.164Z,2.92
2023-03-17T21:02:50.468Z,3.29
2023-03-17T21:05:23.201Z,3.40
2023-03-17T21:07:52.803Z,3.39
2023-03-17T21:10:22.091Z,3.68
2023-03-17T21:12:51.277Z,3.18
2023-03-17T21:15:22.957Z,3.13
2023-03-17T21:17:53.780Z,3.10
2023-03-17T21:20:26.244Z,3.17
2023-03-17T21:22:54.877Z,3.30
2023-03-17T21:25:24.057Z,3.21
2023-03-17T21:27:52.964Z,2.75
2023-03-17T21:30:22.187Z,3.15
2023-03-17T21:32:51.208Z,3.14
2023-03-17T21:35:20.308Z,3.01
2023-03-17T21:37:51.616Z,3.06
2023-03-17T21:40:21.359Z,3.02
2023-03-17T21:42:50.485Z,3.30
2023-03-17T21:45:19.980Z,3.35
2023-03-17T21:47:48.943Z,3.03
2023-03-17T21:50:18.253Z,3.22
2023-03-17T21:52:46.812Z,2.91
2023-03-17T21:55:17.259Z,2.68
2023-03-17T21:57:46.575Z,2.85
2023-03-17T22:00:16.475Z,3.03
2023-03-17T22:02:45.498Z,2.78
2023-03-17T22:05:14.373Z,3.42
2023-03-17T22:07:43.928Z,2.88
2023-03-17T22:10:13.679Z,2.87
2023-03-17T22:12:44.136Z,2.96
2023-03-17T22:15:13.640Z,3.31
2023-03-17T22:17:42.937Z,2.74
2023-03-17T22:20:13.053Z,3.15
2023-03-17T22:22:41.878Z,3.09
2023-03-17T22:25:11.108Z,2.96
2023-03-17T22:27:40.212Z,2.64
2023-03-17T22:30:12.659Z,2.75
2023-03-17T22:32:42.106Z,2.88
2023-03-17T22:35:11.291Z,3.32
2023-03-17T22:37:40.530Z,3.24
2023-03-17T22:40:10.768Z,3.03
2023-03-17T22:42:39.829Z,2.88
2023-03-17T22:45:13.104Z,2.48
2023-03-17T22:47:44.097Z,2.38
2023-03-17T22:50:13.196Z,2.91
2023-03-17T22:52:41.796Z,3.19
2023-03-17T22:55:11.537Z,2.99
2023-03-17T22:57:40.628Z,2.69
2023-03-17T23:00:16.623Z,2.46
2023-03-17T23:02:46.467Z,2.69
2023-03-17T23:05:16.087Z,2.32
2023-03-17T23:07:50.763Z,2.77
2023-03-17T23:10:23.327Z,2.59
2023-03-17T23:12:52.764Z,3.08
2023-03-17T23:15:23.569Z,3.04
2023-03-17T23:17:52.665Z,2.31
2023-03-17T23:20:21.933Z,2.62
2023-03-17T23:22:50.537Z,2.64
2023-03-17T23:25:19.605Z,2.60
2023-03-17T23:27:48.701Z,2.35
2023-03-17T23:30:18.902Z,2.99
2023-03-17T23:32:49.488Z,2.72
2023-03-17T23:35:19.653Z,2.27
2023-03-17T23:37:48.538Z,2.49
2023-03-17T23:40:17.698Z,2.91
2023-03-17T23:42:48.134Z,2.64
2023-03-17T23:45:16.827Z,2.49
2023-03-17T23:47:46.750Z,2.53
2023-03-17T23:50:17.230Z,2.69
2023-03-17T23:52:47.237Z,2.33
2023-03-17T23:55:17.389Z,2.61
2023-03-17T23:57:46.646Z,2.46
